sensor_id;sensor_type;location;lat;lon;timestamp;P1;durP1;ratioP1;P2;durP2;ratioP2
61685;SDS011;47592;45.904;8.978;2023-05-17T00:01:58;0.55;;;0.10;;
61685;SDS011;47592;45.904;8.978;2023-05-17T00:04:29;0.22;;;0.10;;
61685;SDS011;47592;45.904;8.978;2023-05-17T00:06:59;0.57;;;0.20;;
61685;SDS011;47592;45.904;8.978;2023-05-17T00:09:46;0.28;;;0.10;;
61685;SDS011;47592;45.904;8.978;2023-05-17T00:12:13;0.30;;;0.20;;
61685;SDS011;47592;45.904;8.978;2023-05-17T00:14:41;0.30;;;0.10;;
61685;SDS011;47592;45.904;8.978;2023-05-17T00:17:09;0.93;;;0.10;;
61685;SDS011;47592;45.904;8.978;2023-05-17T00:19:44;0.25;;;0.10;;
61685;SDS011;47592;45.904;8.978;2023-05-17T00:22:11;0.20;;;0.10;;
61685;SDS011;47592;45.904;8.978;2023-05-17T00:24:40;0.10;;;0.08;;
61685;SDS011;47592;45.904;8.978;2023-05-17T00:27:11;0.32;;;0.00;;
61685;SDS011;47592;45.904;8.978;2023-05-17T00:29:37;0.17;;;0.10;;
61685;SDS011;47592;45.904;8.978;2023-05-17T00:32:04;0.10;;;0.00;;
61685;SDS011;47592;45.904;8.978;2023-05-17T00:34:33;4.30;;;0.20;;
61685;SDS011;47592;45.904;8.978;2023-05-17T00:36:58;1.25;;;0.40;;
61685;SDS011;47592;45.904;8.978;2023-05-17T00:39:28;4.88;;;2.00;;
61685;SDS011;47592;45.904;8.978;2023-05-17T00:41:59;4.55;;;2.25;;
61685;SDS011;47592;45.904;8.978;2023-05-17T00:44:25;4.93;;;2.50;;
61685;SDS011;47592;45.904;8.978;2023-05-17T00:46:53;4.45;;;1.60;;
61685;SDS011;47592;45.904;8.978;2023-05-17T00:49:23;4.30;;;1.33;;
61685;SDS011;47592;45.904;8.978;2023-05-17T00:51:49;3.33;;;1.30;;
61685;SDS011;47592;45.904;8.978;2023-05-17T00:54:18;4.97;;;2.38;;
61685;SDS011;47592;45.904;8.978;2023-05-17T00:56:46;5.45;;;2.58;;
61685;SDS011;47592;45.904;8.978;2023-05-17T00:59:16;7.20;;;3.60;;
61685;SDS011;47592;45.904;8.978;2023-05-17T01:01:41;7.60;;;4.57;;
61685;SDS011;47592;45.904;8.978;2023-05-17T01:04:15;7.95;;;4.97;;
61685;SDS011;47592;45.904;8.978;2023-05-17T01:06:42;7.65;;;4.18;;
61685;SDS011;47592;45.904;8.978;2023-05-17T01:09:08;7.80;;;4.30;;
61685;SDS011;47592;45.904;8.978;2023-05-17T01:14:33;8.07;;;3.95;;
61685;SDS011;47592;45.904;8.978;2023-05-17T01:17:56;6.57;;;3.15;;
61685;SDS011;47592;45.904;8.978;2023-05-17T01:20:11;6.07;;;3.10;;
61685;SDS011;47592;45.904;8.978;2023-05-17T01:25:33;7.53;;;3.15;;
61685;SDS011;47592;45.904;8.978;2023-05-17T01:28:07;5.68;;;2.60;;
61685;SDS011;47592;45.904;8.978;2023-05-17T01:30:35;4.82;;;2.47;;
61685;SDS011;47592;45.904;8.978;2023-05-17T01:33:02;3.35;;;1.13;;
61685;SDS011;47592;45.904;8.978;2023-05-17T01:35:33;4.60;;;2.28;;
61685;SDS011;47592;45.904;8.978;2023-05-17T01:37:59;9.05;;;2.30;;
61685;SDS011;47592;45.904;8.978;2023-05-17T01:40:26;4.88;;;1.95;;
61685;SDS011;47592;45.904;8.978;2023-05-17T01:43:02;5.53;;;2.40;;
61685;SDS011;47592;45.904;8.978;2023-05-17T01:46:18;5.20;;;2.78;;
61685;SDS011;47592;45.904;8.978;2023-05-17T01:48:25;4.90;;;2.00;;
61685;SDS011;47592;45.904;8.978;2023-05-17T01:50:57;4.20;;;1.50;;
61685;SDS011;47592;45.904;8.978;2023-05-17T01:53:41;4.25;;;1.10;;
61685;SDS011;47592;45.904;8.978;2023-05-17T01:56:27;1.05;;;0.30;;
61685;SDS011;47592;45.904;8.978;2023-05-17T01:58:57;0.10;;;0.10;;
61685;SDS011;47592;45.904;8.978;2023-05-17T02:01:27;1.83;;;0.15;;
61685;SDS011;47592;45.904;8.978;2023-05-17T02:03:52;0.00;;;0.00;;
61685;SDS011;47592;45.904;8.978;2023-05-17T02:06:20;0.17;;;0.08;;
61685;SDS011;47592;45.904;8.978;2023-05-17T02:08:45;0.63;;;0.00;;
61685;SDS011;47592;45.904;8.978;2023-05-17T02:11:11;0.43;;;0.10;;
61685;SDS011;47592;45.904;8.978;2023-05-17T02:13:43;0.10;;;0.10;;
61685;SDS011;47592;45.904;8.978;2023-05-17T02:16:13;1.35;;;0.10;;
61685;SDS011;47592;45.904;8.978;2023-05-17T02:18:38;0.10;;;0.10;;
61685;SDS011;47592;45.904;8.978;2023-05-17T02:21:04;0.00;;;0.00;;
61685;SDS011;47592;45.904;8.978;2023-05-17T02:23:31;0.25;;;0.10;;
61685;SDS011;47592;45.904;8.978;2023-05-17T02:25:57;1.35;;;0.10;;
61685;SDS011;47592;45.904;8.978;2023-05-17T02:28:27;0.57;;;0.10;;
61685;SDS011;47592;45.904;8.978;2023-05-17T02:30:57;0.17;;;0.10;;
61685;SDS011;47592;45.904;8.978;2023-05-17T02:33:22;0.45;;;0.10;;
61685;SDS011;47592;45.904;8.978;2023-05-17T02:35:55;0.32;;;0.10;;
61685;SDS011;47592;45.904;8.978;2023-05-17T02:38:23;0.00;;;0.00;;
61685;SDS011;47592;45.904;8.978;2023-05-17T02:40:54;0.15;;;0.10;;
61685;SDS011;47592;45.904;8.978;2023-05-17T02:43:22;0.80;;;0.10;;
61685;SDS011;47592;45.904;8.978;2023-05-17T02:45:52;1.45;;;0.10;;
61685;SDS011;47592;45.904;8.978;2023-05-17T02:48:18;0.43;;;0.10;;
61685;SDS011;47592;45.904;8.978;2023-05-17T02:50:52;0.63;;;0.13;;
61685;SDS011;47592;45.904;8.978;2023-05-17T02:53:17;0.00;;;0.00;;
61685;SDS011;47592;45.904;8.978;2023-05-17T02:55:42;0.40;;;0.08;;
61685;SDS011;47592;45.904;8.978;2023-05-17T02:58:11;0.17;;;0.10;;
61685;SDS011;47592;45.904;8.978;2023-05-17T03:00:36;0.30;;;0.15;;
61685;SDS011;47592;45.904;8.978;2023-05-17T03:03:10;0.10;;;0.10;;
61685;SDS011;47592;45.904;8.978;2023-05-17T03:05:37;0.00;;;0.00;;
61685;SDS011;47592;45.904;8.978;2023-05-17T03:08:12;0.10;;;0.10;;
61685;SDS011;47592;45.904;8.978;2023-05-17T03:10:40;0.00;;;0.00;;
61685;SDS011;47592;45.904;8.978;2023-05-17T03:13:08;0.45;;;0.10;;
61685;SDS011;47592;45.904;8.978;2023-05-17T03:15:36;0.52;;;0.10;;
61685;SDS011;47592;45.904;8.978;2023-05-17T03:18:02;0.10;;;0.10;;
61685;SDS011;47592;45.904;8.978;2023-05-17T03:20:27;0.00;;;0.00;;
61685;SDS011;47592;45.904;8.978;2023-05-17T03:22:52;0.32;;;0.10;;
61685;SDS011;47592;45.904;8.978;2023-05-17T03:25:26;0.10;;;0.10;;
61685;SDS011;47592;45.904;8.978;2023-05-17T03:27:52;0.22;;;0.10;;
61685;SDS011;47592;45.904;8.978;2023-05-17T03:30:20;0.03;;;0.00;;
61685;SDS011;47592;45.904;8.978;2023-05-17T03:32:45;0.13;;;0.10;;
61685;SDS011;47592;45.904;8.978;2023-05-17T03:35:14;0.52;;;0.20;;
61685;SDS011;47592;45.904;8.978;2023-05-17T03:37:42;0.00;;;0.00;;
61685;SDS011;47592;45.904;8.978;2023-05-17T03:40:08;0.30;;;0.10;;
61685;SDS011;47592;45.904;8.978;2023-05-17T03:42:39;0.40;;;0.10;;
61685;SDS011;47592;45.904;8.978;2023-05-17T03:45:10;2.42;;;0.30;;
61685;SDS011;47592;45.904;8.978;2023-05-17T03:47:37;0.10;;;0.10;;
61685;SDS011;47592;45.904;8.978;2023-05-17T03:50:04;0.30;;;0.13;;
61685;SDS011;47592;45.904;8.978;2023-05-17T03:52:30;0.30;;;0.10;;
61685;SDS011;47592;45.904;8.978;2023-05-17T03:54:56;0.00;;;0.00;;
61685;SDS011;47592;45.904;8.978;2023-05-17T03:57:24;0.35;;;0.10;;
61685;SDS011;47592;45.904;8.978;2023-05-17T03:59:50;0.20;;;0.10;;
61685;SDS011;47592;45.904;8.978;2023-05-17T04:02:18;0.10;;;0.10;;
61685;SDS011;47592;45.904;8.978;2023-05-17T04:04:49;0.10;;;0.10;;
61685;SDS011;47592;45.904;8.978;2023-05-17T04:07:17;1.98;;;0.20;;
61685;SDS011;47592;45.904;8.978;2023-05-17T04:09:45;0.10;;;0.10;;
61685;SDS011;47592;45.904;8.978;2023-05-17T04:12:16;0.30;;;0.10;;
61685;SDS011;47592;45.904;8.978;2023-05-17T04:14:41;0.30;;;0.10;;
61685;SDS011;47592;45.904;8.978;2023-05-17T04:17:20;0.15;;;0.10;;
61685;SDS011;47592;45.904;8.978;2023-05-17T04:19:55;1.02;;;0.20;;
61685;SDS011;47592;45.904;8.978;2023-05-17T04:22:24;0.35;;;0.15;;
61685;SDS011;47592;45.904;8.978;2023-05-17T04:24:59;0.08;;;0.08;;
61685;SDS011;47592;45.904;8.978;2023-05-17T04:27:25;1.13;;;0.20;;
61685;SDS011;47592;45.904;8.978;2023-05-17T04:29:52;0.98;;;0.10;;
61685;SDS011;47592;45.904;8.978;2023-05-17T04:32:23;0.10;;;0.10;;
61685;SDS011;47592;45.904;8.978;2023-05-17T04:34:51;0.35;;;0.20;;
61685;SDS011;47592;45.904;8.978;2023-05-17T04:37:19;0.57;;;0.20;;
61685;SDS011;47592;45.904;8.978;2023-05-17T04:39:45;0.35;;;0.20;;
61685;SDS011;47592;45.904;8.978;2023-05-17T04:42:18;0.25;;;0.10;;
61685;SDS011;47592;45.904;8.978;2023-05-17T04:44:46;0.63;;;0.20;;
61685;SDS011;47592;45.904;8.978;2023-05-17T04:47:11;0.85;;;0.20;;
61685;SDS011;47592;45.904;8.978;2023-05-17T04:49:39;0.45;;;0.20;;
61685;SDS011;47592;45.904;8.978;2023-05-17T04:52:07;0.35;;;0.20;;
61685;SDS011;47592;45.904;8.978;2023-05-17T04:54:40;0.50;;;0.20;;
61685;SDS011;47592;45.904;8.978;2023-05-17T04:57:05;0.90;;;0.28;;
61685;SDS011;47592;45.904;8.978;2023-05-17T04:59:38;0.85;;;0.30;;
61685;SDS011;47592;45.904;8.978;2023-05-17T05:02:04;3.92;;;0.30;;
61685;SDS011;47592;45.904;8.978;2023-05-17T05:04:32;0.63;;;0.20;;
61685;SDS011;47592;45.904;8.978;2023-05-17T05:06:58;1.00;;;0.25;;
61685;SDS011;47592;45.904;8.978;2023-05-17T05:09:26;4.60;;;0.63;;
61685;SDS011;47592;45.904;8.978;2023-05-17T05:11:51;0.70;;;0.30;;
61685;SDS011;47592;45.904;8.978;2023-05-17T05:14:16;1.30;;;0.40;;
61685;SDS011;47592;45.904;8.978;2023-05-17T05:16:44;0.40;;;0.10;;
61685;SDS011;47592;45.904;8.978;2023-05-17T05:19:10;0.28;;;0.10;;
61685;SDS011;47592;45.904;8.978;2023-05-17T05:21:40;0.57;;;0.20;;
61685;SDS011;47592;45.904;8.978;2023-05-17T05:24:05;0.95;;;0.10;;
61685;SDS011;47592;45.904;8.978;2023-05-17T05:26:39;0.50;;;0.20;;
61685;SDS011;47592;45.904;8.978;2023-05-17T05:29:11;2.10;;;0.30;;
61685;SDS011;47592;45.904;8.978;2023-05-17T05:31:44;1.95;;;0.30;;
61685;SDS011;47592;45.904;8.978;2023-05-17T05:34:13;0.30;;;0.17;;
61685;SDS011;47592;45.904;8.978;2023-05-17T05:36:42;0.60;;;0.30;;
61685;SDS011;47592;45.904;8.978;2023-05-17T05:39:08;1.07;;;0.30;;
61685;SDS011;47592;45.904;8.978;2023-05-17T05:41:36;0.95;;;0.30;;
61685;SDS011;47592;45.904;8.978;2023-05-17T05:44:08;0.85;;;0.30;;
61685;SDS011;47592;45.904;8.978;2023-05-17T05:46:33;0.88;;;0.20;;
61685;SDS011;47592;45.904;8.978;2023-05-17T05:48:59;1.92;;;0.30;;
61685;SDS011;47592;45.904;8.978;2023-05-17T05:51:24;2.33;;;0.38;;
61685;SDS011;47592;45.904;8.978;2023-05-17T05:53:50;1.27;;;0.40;;
61685;SDS011;47592;45.904;8.978;2023-05-17T05:56:15;0.77;;;0.30;;
61685;SDS011;47592;45.904;8.978;2023-05-17T05:58:43;0.85;;;0.30;;
61685;SDS011;47592;45.904;8.978;2023-05-17T06:01:11;1.95;;;0.43;;
61685;SDS011;47592;45.904;8.978;2023-05-17T06:03:40;1.23;;;0.30;;
61685;SDS011;47592;45.904;8.978;2023-05-17T06:06:13;1.08;;;0.40;;
61685;SDS011;47592;45.904;8.978;2023-05-17T06:08:42;1.00;;;0.30;;
61685;SDS011;47592;45.904;8.978;2023-05-17T06:11:28;1.80;;;0.47;;
61685;SDS011;47592;45.904;8.978;2023-05-17T06:13:56;1.77;;;0.60;;
61685;SDS011;47592;45.904;8.978;2023-05-17T06:16:24;1.20;;;0.40;;
61685;SDS011;47592;45.904;8.978;2023-05-17T06:18:50;0.75;;;0.30;;
61685;SDS011;47592;45.904;8.978;2023-05-17T06:21:24;0.50;;;0.20;;
61685;SDS011;47592;45.904;8.978;2023-05-17T06:23:54;0.90;;;0.30;;
61685;SDS011;47592;45.904;8.978;2023-05-17T06:26:19;0.77;;;0.20;;
61685;SDS011;47592;45.904;8.978;2023-05-17T06:28:49;2.72;;;0.50;;
61685;SDS011;47592;45.904;8.978;2023-05-17T06:31:15;1.65;;;0.40;;
61685;SDS011;47592;45.904;8.978;2023-05-17T06:33:40;1.73;;;0.40;;
61685;SDS011;47592;45.904;8.978;2023-05-17T06:36:14;1.25;;;0.40;;
61685;SDS011;47592;45.904;8.978;2023-05-17T06:38:39;1.67;;;0.38;;
61685;SDS011;47592;45.904;8.978;2023-05-17T06:41:10;0.82;;;0.22;;
61685;SDS011;47592;45.904;8.978;2023-05-17T06:43:35;6.25;;;2.83;;
61685;SDS011;47592;45.904;8.978;2023-05-17T06:46:01;9.32;;;3.83;;
61685;SDS011;47592;45.904;8.978;2023-05-17T06:48:26;6.30;;;3.20;;
61685;SDS011;47592;45.904;8.978;2023-05-17T06:50:58;9.32;;;4.57;;
61685;SDS011;47592;45.904;8.978;2023-05-17T06:53:26;10.13;;;4.65;;
61685;SDS011;47592;45.904;8.978;2023-05-17T06:55:54;10.07;;;4.93;;
61685;SDS011;47592;45.904;8.978;2023-05-17T06:58:25;9.40;;;4.82;;
61685;SDS011;47592;45.904;8.978;2023-05-17T07:00:57;9.13;;;6.07;;
61685;SDS011;47592;45.904;8.978;2023-05-17T07:03:22;9.60;;;5.60;;
61685;SDS011;47592;45.904;8.978;2023-05-17T07:05:51;9.43;;;6.03;;
61685;SDS011;47592;45.904;8.978;2023-05-17T07:08:25;11.60;;;6.25;;
61685;SDS011;47592;45.904;8.978;2023-05-17T07:11:02;10.60;;;6.55;;
61685;SDS011;47592;45.904;8.978;2023-05-17T07:13:30;11.02;;;7.07;;
61685;SDS011;47592;45.904;8.978;2023-05-17T07:15:59;12.55;;;6.97;;
61685;SDS011;47592;45.904;8.978;2023-05-17T07:18:24;11.48;;;7.10;;
61685;SDS011;47592;45.904;8.978;2023-05-17T07:20:54;10.85;;;6.72;;
61685;SDS011;47592;45.904;8.978;2023-05-17T07:23:20;12.25;;;6.95;;
61685;SDS011;47592;45.904;8.978;2023-05-17T07:25:47;11.65;;;7.32;;
61685;SDS011;47592;45.904;8.978;2023-05-17T07:28:18;11.95;;;6.72;;
61685;SDS011;47592;45.904;8.978;2023-05-17T07:30:44;11.05;;;7.32;;
61685;SDS011;47592;45.904;8.978;2023-05-17T07:33:12;10.95;;;7.13;;
61685;SDS011;47592;45.904;8.978;2023-05-17T07:35:37;11.55;;;6.90;;
61685;SDS011;47592;45.904;8.978;2023-05-17T07:38:08;12.18;;;7.38;;
61685;SDS011;47592;45.904;8.978;2023-05-17T07:40:34;11.60;;;7.13;;
61685;SDS011;47592;45.904;8.978;2023-05-17T07:43:00;10.80;;;7.35;;
61685;SDS011;47592;45.904;8.978;2023-05-17T07:45:30;12.52;;;7.32;;
61685;SDS011;47592;45.904;8.978;2023-05-17T07:47:57;10.43;;;6.50;;
61685;SDS011;47592;45.904;8.978;2023-05-17T07:50:31;11.25;;;7.15;;
61685;SDS011;47592;45.904;8.978;2023-05-17T07:52:59;10.35;;;6.80;;
61685;SDS011;47592;45.904;8.978;2023-05-17T07:55:25;12.00;;;7.00;;
61685;SDS011;47592;45.904;8.978;2023-05-17T07:57:53;11.73;;;6.20;;
61685;SDS011;47592;45.904;8.978;2023-05-17T08:00:22;9.25;;;5.95;;
61685;SDS011;47592;45.904;8.978;2023-05-17T08:02:50;9.13;;;5.53;;
61685;SDS011;47592;45.904;8.978;2023-05-17T08:05:23;11.95;;;6.20;;
61685;SDS011;47592;45.904;8.978;2023-05-17T08:07:51;10.18;;;5.80;;
61685;SDS011;47592;45.904;8.978;2023-05-17T08:10:19;8.85;;;5.40;;
61685;SDS011;47592;45.904;8.978;2023-05-17T08:12:50;6.75;;;3.78;;
61685;SDS011;47592;45.904;8.978;2023-05-17T08:15:26;5.25;;;3.03;;
61685;SDS011;47592;45.904;8.978;2023-05-17T08:17:54;6.53;;;3.50;;
61685;SDS011;47592;45.904;8.978;2023-05-17T08:20:26;5.85;;;3.00;;
61685;SDS011;47592;45.904;8.978;2023-05-17T08:22:54;9.43;;;3.33;;
61685;SDS011;47592;45.904;8.978;2023-05-17T08:25:26;6.57;;;3.10;;
61685;SDS011;47592;45.904;8.978;2023-05-17T08:27:51;6.50;;;2.80;;
61685;SDS011;47592;45.904;8.978;2023-05-17T08:30:17;5.85;;;2.67;;
61685;SDS011;47592;45.904;8.978;2023-05-17T08:32:45;4.95;;;2.30;;
61685;SDS011;47592;45.904;8.978;2023-05-17T08:35:17;6.22;;;2.70;;
61685;SDS011;47592;45.904;8.978;2023-05-17T08:37:49;5.63;;;2.95;;
61685;SDS011;47592;45.904;8.978;2023-05-17T08:40:21;5.68;;;2.70;;
61685;SDS011;47592;45.904;8.978;2023-05-17T08:42:49;5.78;;;3.20;;
61685;SDS011;47592;45.904;8.978;2023-05-17T08:45:16;6.75;;;3.33;;
61685;SDS011;47592;45.904;8.978;2023-05-17T08:47:50;6.60;;;3.33;;
61685;SDS011;47592;45.904;8.978;2023-05-17T08:50:20;6.32;;;3.33;;
61685;SDS011;47592;45.904;8.978;2023-05-17T08:52:46;7.68;;;3.47;;
61685;SDS011;47592;45.904;8.978;2023-05-17T08:55:13;6.10;;;3.50;;
61685;SDS011;47592;45.904;8.978;2023-05-17T08:57:47;6.20;;;3.55;;
61685;SDS011;47592;45.904;8.978;2023-05-17T09:00:28;7.07;;;3.47;;
61685;SDS011;47592;45.904;8.978;2023-05-17T09:02:58;6.93;;;3.80;;
61685;SDS011;47592;45.904;8.978;2023-05-17T09:05:24;6.38;;;3.80;;
61685;SDS011;47592;45.904;8.978;2023-05-17T09:07:50;7.53;;;3.90;;
61685;SDS011;47592;45.904;8.978;2023-05-17T09:10:19;7.90;;;4.05;;
61685;SDS011;47592;45.904;8.978;2023-05-17T09:12:47;6.72;;;3.90;;
61685;SDS011;47592;45.904;8.978;2023-05-17T09:15:19;8.03;;;4.17;;
61685;SDS011;47592;45.904;8.978;2023-05-17T09:17:58;8.23;;;4.43;;
61685;SDS011;47592;45.904;8.978;2023-05-17T09:20:27;7.75;;;5.03;;
61685;SDS011;47592;45.904;8.978;2023-05-17T09:23:01;7.45;;;5.13;;
61685;SDS011;47592;45.904;8.978;2023-05-17T09:25:29;9.00;;;5.28;;
61685;SDS011;47592;45.904;8.978;2023-05-17T09:28:04;9.68;;;6.03;;
61685;SDS011;47592;45.904;8.978;2023-05-17T09:30:34;11.32;;;6.32;;
61685;SDS011;47592;45.904;8.978;2023-05-17T09:33:09;11.35;;;6.20;;
61685;SDS011;47592;45.904;8.978;2023-05-17T09:35:41;9.35;;;6.60;;
61685;SDS011;47592;45.904;8.978;2023-05-17T09:40:40;11.38;;;6.70;;
61685;SDS011;47592;45.904;8.978;2023-05-17T09:43:12;11.43;;;6.72;;
61685;SDS011;47592;45.904;8.978;2023-05-17T09:46:00;10.80;;;7.63;;
61685;SDS011;47592;45.904;8.978;2023-05-17T09:48:28;12.02;;;7.38;;
61685;SDS011;47592;45.904;8.978;2023-05-17T09:50:54;12.82;;;7.75;;
61685;SDS011;47592;45.904;8.978;2023-05-17T09:53:24;10.82;;;7.18;;
61685;SDS011;47592;45.904;8.978;2023-05-17T09:55:56;11.35;;;7.72;;
61685;SDS011;47592;45.904;8.978;2023-05-17T09:58:23;10.90;;;7.18;;
61685;SDS011;47592;45.904;8.978;2023-05-17T10:00:53;11.90;;;7.50;;
61685;SDS011;47592;45.904;8.978;2023-05-17T10:03:35;11.95;;;7.28;;
61685;SDS011;47592;45.904;8.978;2023-05-17T10:06:05;12.45;;;7.40;;
61685;SDS011;47592;45.904;8.978;2023-05-17T10:08:31;10.90;;;7.15;;
61685;SDS011;47592;45.904;8.978;2023-05-17T10:11:07;9.68;;;7.00;;
61685;SDS011;47592;45.904;8.978;2023-05-17T10:13:53;9.57;;;7.50;;
61685;SDS011;47592;45.904;8.978;2023-05-17T10:16:23;14.20;;;7.53;;
61685;SDS011;47592;45.904;8.978;2023-05-17T10:18:57;10.15;;;7.43;;
61685;SDS011;47592;45.904;8.978;2023-05-17T10:21:34;10.32;;;7.60;;
61685;SDS011;47592;45.904;8.978;2023-05-17T10:24:03;11.80;;;6.70;;
61685;SDS011;47592;45.904;8.978;2023-05-17T10:26:32;10.57;;;7.47;;
61685;SDS011;47592;45.904;8.978;2023-05-17T10:29:05;10.43;;;6.00;;
61685;SDS011;47592;45.904;8.978;2023-05-17T10:31:33;10.73;;;7.25;;
61685;SDS011;47592;45.904;8.978;2023-05-17T10:34:05;10.93;;;6.30;;
61685;SDS011;47592;45.904;8.978;2023-05-17T10:36:31;8.93;;;5.78;;
61685;SDS011;47592;45.904;8.978;2023-05-17T10:38:57;10.70;;;6.10;;
61685;SDS011;47592;45.904;8.978;2023-05-17T10:41:25;8.38;;;6.03;;
61685;SDS011;47592;45.904;8.978;2023-05-17T10:46:22;8.32;;;5.57;;
61685;SDS011;47592;45.904;8.978;2023-05-17T10:49:00;11.00;;;5.82;;
61685;SDS011;47592;45.904;8.978;2023-05-17T10:51:30;9.85;;;5.85;;
61685;SDS011;47592;45.904;8.978;2023-05-17T10:54:11;10.00;;;5.88;;
61685;SDS011;47592;45.904;8.978;2023-05-17T10:56:53;9.05;;;5.40;;
61685;SDS011;47592;45.904;8.978;2023-05-17T10:59:25;9.20;;;5.63;;
61685;SDS011;47592;45.904;8.978;2023-05-17T11:06:50;8.65;;;4.82;;
61685;SDS011;47592;45.904;8.978;2023-05-17T11:09:39;8.02;;;5.07;;
61685;SDS011;47592;45.904;8.978;2023-05-17T11:14:47;10.15;;;5.47;;
61685;SDS011;47592;45.904;8.978;2023-05-17T11:17:13;7.40;;;5.25;;
61685;SDS011;47592;45.904;8.978;2023-05-17T11:22:42;7.68;;;5.53;;
61685;SDS011;47592;45.904;8.978;2023-05-17T11:25:12;8.98;;;5.45;;
61685;SDS011;47592;45.904;8.978;2023-05-17T11:32:59;8.75;;;5.80;;
61685;SDS011;47592;45.904;8.978;2023-05-17T11:37:52;8.93;;;4.72;;
61685;SDS011;47592;45.904;8.978;2023-05-17T11:43:11;7.97;;;5.53;;
61685;SDS011;47592;45.904;8.978;2023-05-17T11:48:25;6.85;;;4.90;;
61685;SDS011;47592;45.904;8.978;2023-05-17T11:50:53;8.05;;;5.20;;
61685;SDS011;47592;45.904;8.978;2023-05-17T11:53:23;8.43;;;4.70;;
61685;SDS011;47592;45.904;8.978;2023-05-17T11:55:54;8.63;;;4.65;;
61685;SDS011;47592;45.904;8.978;2023-05-17T11:58:37;7.40;;;5.07;;
61685;SDS011;47592;45.904;8.978;2023-05-17T12:01:06;6.40;;;4.63;;
61685;SDS011;47592;45.904;8.978;2023-05-17T12:03:40;7.30;;;5.05;;
61685;SDS011;47592;45.904;8.978;2023-05-17T12:06:12;8.35;;;4.47;;
61685;SDS011;47592;45.904;8.978;2023-05-17T12:08:41;7.68;;;4.75;;
61685;SDS011;47592;45.904;8.978;2023-05-17T12:11:16;8.25;;;5.00;;
61685;SDS011;47592;45.904;8.978;2023-05-17T12:16:20;8.13;;;5.72;;
61685;SDS011;47592;45.904;8.978;2023-05-17T12:18:51;8.38;;;5.28;;
61685;SDS011;47592;45.904;8.978;2023-05-17T12:23:46;10.17;;;5.53;;
61685;SDS011;47592;45.904;8.978;2023-05-17T12:26:19;7.60;;;5.30;;
61685;SDS011;47592;45.904;8.978;2023-05-17T12:29:02;8.10;;;5.53;;
61685;SDS011;47592;45.904;8.978;2023-05-17T12:31:38;7.70;;;5.95;;
61685;SDS011;47592;45.904;8.978;2023-05-17T12:34:16;7.82;;;5.47;;
61685;SDS011;47592;45.904;8.978;2023-05-17T12:36:45;7.35;;;5.43;;
61685;SDS011;47592;45.904;8.978;2023-05-17T12:39:10;9.77;;;5.40;;
61685;SDS011;47592;45.904;8.978;2023-05-17T12:41:42;8.27;;;6.00;;
61685;SDS011;47592;45.904;8.978;2023-05-17T12:44:10;9.70;;;6.37;;
61685;SDS011;47592;45.904;8.978;2023-05-17T12:46:36;8.45;;;6.10;;
61685;SDS011;47592;45.904;8.978;2023-05-17T12:49:05;9.77;;;6.05;;
61685;SDS011;47592;45.904;8.978;2023-05-17T12:51:38;7.85;;;5.97;;
61685;SDS011;47592;45.904;8.978;2023-05-17T12:54:10;9.60;;;5.82;;
61685;SDS011;47592;45.904;8.978;2023-05-17T12:56:43;8.50;;;6.57;;
61685;SDS011;47592;45.904;8.978;2023-05-17T12:59:17;9.50;;;6.10;;
61685;SDS011;47592;45.904;8.978;2023-05-17T13:01:53;10.80;;;6.00;;
61685;SDS011;47592;45.904;8.978;2023-05-17T13:04:27;8.27;;;5.00;;
61685;SDS011;47592;45.904;8.978;2023-05-17T13:06:58;7.75;;;5.20;;
61685;SDS011;47592;45.904;8.978;2023-05-17T13:09:25;8.43;;;5.50;;
61685;SDS011;47592;45.904;8.978;2023-05-17T13:11:59;8.27;;;5.20;;
61685;SDS011;47592;45.904;8.978;2023-05-17T13:14:34;8.70;;;5.83;;
61685;SDS011;47592;45.904;8.978;2023-05-17T13:17:03;7.13;;;4.90;;
61685;SDS011;47592;45.904;8.978;2023-05-17T13:19:35;7.88;;;5.43;;
61685;SDS011;47592;45.904;8.978;2023-05-17T13:22:10;9.60;;;5.68;;
61685;SDS011;47592;45.904;8.978;2023-05-17T13:24:42;9.18;;;5.40;;
61685;SDS011;47592;45.904;8.978;2023-05-17T13:27:11;9.88;;;5.82;;
61685;SDS011;47592;45.904;8.978;2023-05-17T13:29:42;7.80;;;5.18;;
61685;SDS011;47592;45.904;8.978;2023-05-17T13:32:19;8.30;;;5.45;;
61685;SDS011;47592;45.904;8.978;2023-05-17T13:34:47;6.93;;;4.50;;
61685;SDS011;47592;45.904;8.978;2023-05-17T13:37:13;8.15;;;4.75;;
61685;SDS011;47592;45.904;8.978;2023-05-17T13:39:44;7.70;;;4.68;;
61685;SDS011;47592;45.904;8.978;2023-05-17T13:42:15;7.40;;;4.78;;
61685;SDS011;47592;45.904;8.978;2023-05-17T13:44:40;8.38;;;4.50;;
61685;SDS011;47592;45.904;8.978;2023-05-17T13:47:08;8.02;;;4.45;;
61685;SDS011;47592;45.904;8.978;2023-05-17T13:49:34;8.05;;;4.43;;
61685;SDS011;47592;45.904;8.978;2023-05-17T13:52:02;7.50;;;3.90;;
61685;SDS011;47592;45.904;8.978;2023-05-17T13:54:33;6.07;;;3.75;;
61685;SDS011;47592;45.904;8.978;2023-05-17T13:57:01;6.45;;;3.15;;
61685;SDS011;47592;45.904;8.978;2023-05-17T13:59:30;7.03;;;3.42;;
61685;SDS011;47592;45.904;8.978;2023-05-17T14:01:55;6.97;;;4.15;;
61685;SDS011;47592;45.904;8.978;2023-05-17T14:04:21;5.65;;;3.75;;
61685;SDS011;47592;45.904;8.978;2023-05-17T14:06:49;7.00;;;3.60;;
61685;SDS011;47592;45.904;8.978;2023-05-17T14:09:21;5.65;;;3.15;;
61685;SDS011;47592;45.904;8.978;2023-05-17T14:11:54;6.05;;;3.55;;
61685;SDS011;47592;45.904;8.978;2023-05-17T14:14:19;6.68;;;3.40;;
61685;SDS011;47592;45.904;8.978;2023-05-17T14:16:57;5.38;;;3.05;;
61685;SDS011;47592;45.904;8.978;2023-05-17T14:19:25;5.25;;;2.70;;
61685;SDS011;47592;45.904;8.978;2023-05-17T14:21:53;4.55;;;2.28;;
61685;SDS011;47592;45.904;8.978;2023-05-17T14:24:24;5.28;;;2.10;;
61685;SDS011;47592;45.904;8.978;2023-05-17T14:26:55;4.55;;;1.88;;
61685;SDS011;47592;45.904;8.978;2023-05-17T14:29:21;4.22;;;1.85;;
61685;SDS011;47592;45.904;8.978;2023-05-17T14:31:56;4.30;;;2.28;;
61685;SDS011;47592;45.904;8.978;2023-05-17T14:34:24;5.53;;;2.00;;
61685;SDS011;47592;45.904;8.978;2023-05-17T14:36:55;4.60;;;2.05;;
61685;SDS011;47592;45.904;8.978;2023-05-17T14:39:29;4.38;;;1.73;;
61685;SDS011;47592;45.904;8.978;2023-05-17T14:41:57;4.18;;;1.65;;
61685;SDS011;47592;45.904;8.978;2023-05-17T14:44:26;4.20;;;1.80;;
61685;SDS011;47592;45.904;8.978;2023-05-17T14:46:55;4.10;;;1.50;;
61685;SDS011;47592;45.904;8.978;2023-05-17T14:49:20;4.88;;;1.50;;
61685;SDS011;47592;45.904;8.978;2023-05-17T14:51:51;4.40;;;1.52;;
61685;SDS011;47592;45.904;8.978;2023-05-17T14:54:28;5.35;;;1.70;;
61685;SDS011;47592;45.904;8.978;2023-05-17T14:56:57;6.35;;;1.70;;
61685;SDS011;47592;45.904;8.978;2023-05-17T14:59:25;3.50;;;1.30;;
61685;SDS011;47592;45.904;8.978;2023-05-17T15:01:56;4.43;;;1.50;;
61685;SDS011;47592;45.904;8.978;2023-05-17T15:04:28;4.32;;;1.60;;
61685;SDS011;47592;45.904;8.978;2023-05-17T15:06:56;3.25;;;1.20;;
61685;SDS011;47592;45.904;8.978;2023-05-17T15:09:27;5.22;;;1.50;;
61685;SDS011;47592;45.904;8.978;2023-05-17T15:11:55;4.47;;;1.33;;
61685;SDS011;47592;45.904;8.978;2023-05-17T15:14:39;4.20;;;1.30;;
61685;SDS011;47592;45.904;8.978;2023-05-17T15:17:07;4.50;;;1.40;;
61685;SDS011;47592;45.904;8.978;2023-05-17T15:19:40;5.22;;;1.55;;
61685;SDS011;47592;45.904;8.978;2023-05-17T15:22:06;3.40;;;1.38;;
61685;SDS011;47592;45.904;8.978;2023-05-17T15:24:32;4.50;;;1.30;;
61685;SDS011;47592;45.904;8.978;2023-05-17T15:27:06;4.63;;;1.98;;
61685;SDS011;47592;45.904;8.978;2023-05-17T15:29:39;5.55;;;1.50;;
61685;SDS011;47592;45.904;8.978;2023-05-17T15:32:06;3.47;;;1.27;;
61685;SDS011;47592;45.904;8.978;2023-05-17T15:34:32;4.78;;;1.30;;
61685;SDS011;47592;45.904;8.978;2023-05-17T15:36:58;3.65;;;1.20;;
61685;SDS011;47592;45.904;8.978;2023-05-17T15:39:28;3.80;;;1.10;;
61685;SDS011;47592;45.904;8.978;2023-05-17T15:41:54;2.53;;;1.00;;